createdAt,value
2018-06-21T00:01:03.065Z,19.97
2018-06-21T00:03:30.914Z,21.00
2018-06-21T00:05:59.094Z,20.77
2018-06-21T00:08:27.143Z,22.07
2018-06-21T00:10:55.194Z,20.53
2018-06-21T00:13:23.003Z,25.60
2018-06-21T00:15:50.948Z,33.50
2018-06-21T00:18:18.996Z,25.67
2018-06-21T00:20:47.060Z,35.43
2018-06-21T00:23:15.336Z,26.07
2018-06-21T00:25:44.081Z,23.83
2018-06-21T00:28:12.466Z,24.77
2018-06-21T00:30:40.525Z,21.70
2018-06-21T00:33:08.597Z,30.10
2018-06-21T00:35:36.578Z,25.00
2018-06-21T00:38:04.562Z,27.17
2018-06-21T00:40:32.550Z,21.87
2018-06-21T00:43:00.623Z,23.17
2018-06-21T00:45:28.623Z,24.93
2018-06-21T00:47:56.582Z,22.93
2018-06-21T00:50:24.572Z,30.03
2018-06-21T00:52:52.409Z,21.07
2018-06-21T00:55:32.041Z,22.87
2018-06-21T00:58:00.024Z,19.77
2018-06-21T01:00:28.064Z,25.47
2018-06-21T01:02:55.863Z,24.60
2018-06-21T01:05:23.846Z,21.20
2018-06-21T01:07:51.984Z,22.87
2018-06-21T01:10:19.987Z,28.47
2018-06-21T01:12:47.851Z,16.13
2018-06-21T01:15:15.900Z,20.00
2018-06-21T01:17:43.964Z,20.70
2018-06-21T01:20:12.390Z,21.37
2018-06-21T01:22:40.367Z,21.17
2018-06-21T01:25:08.339Z,18.67
2018-06-21T01:27:36.386Z,19.33
2018-06-21T01:30:04.350Z,21.80
2018-06-21T01:32:32.315Z,30.77
2018-06-21T01:35:00.427Z,21.10
2018-06-21T01:37:28.399Z,22.23
2018-06-21T01:39:56.383Z,20.30
2018-06-21T01:42:24.181Z,27.40
2018-06-21T01:44:52.179Z,21.03
2018-06-21T01:47:20.223Z,19.70
2018-06-21T01:49:48.247Z,21.00
2018-06-21T01:52:16.186Z,20.60
2018-06-21T01:54:44.242Z,24.63
2018-06-21T01:57:12.854Z,23.10
2018-06-21T01:59:40.878Z,20.53
2018-06-21T02:02:08.851Z,21.37
2018-06-21T02:04:36.852Z,21.23
2018-06-21T02:07:04.911Z,28.20
2018-06-21T02:09:33.122Z,19.00
2018-06-21T02:12:01.208Z,19.65
2018-06-21T02:14:29.306Z,21.43
2018-06-21T02:16:57.347Z,21.83
2018-06-21T02:19:25.243Z,18.00
2018-06-21T02:21:53.112Z,19.03
2018-06-21T02:24:21.071Z,18.67
2018-06-21T02:26:49.126Z,18.00
2018-06-21T02:29:17.190Z,21.00
2018-06-21T02:31:45.185Z,23.13
2018-06-21T02:34:13.505Z,19.15
2018-06-21T02:36:41.404Z,17.90
2018-06-21T02:39:09.880Z,21.17
2018-06-21T02:41:38.163Z,19.40
2018-06-21T02:44:06.343Z,24.00
2018-06-21T02:46:34.299Z,18.93
2018-06-21T02:49:02.263Z,27.27
2018-06-21T02:51:30.214Z,22.80
2018-06-21T02:53:58.244Z,21.33
2018-06-21T02:56:26.466Z,21.50
2018-06-21T02:58:54.617Z,17.60
2018-06-21T03:01:22.718Z,30.20
2018-06-21T03:03:50.794Z,18.23
2018-06-21T03:06:18.731Z,20.53
2018-06-21T03:08:46.694Z,29.63
2018-06-21T03:11:14.886Z,19.23
2018-06-21T03:13:42.911Z,22.87
2018-06-21T03:16:10.778Z,19.43
2018-06-21T03:18:38.734Z,21.40
2018-06-21T03:21:06.715Z,18.23
2018-06-21T03:23:34.828Z,21.77
2018-06-21T03:26:02.796Z,20.47
2018-06-21T03:28:30.803Z,17.90
2018-06-21T03:30:58.787Z,19.53
2018-06-21T03:33:26.734Z,19.30
2018-06-21T03:35:54.771Z,21.30
2018-06-21T03:38:22.742Z,25.77
2018-06-21T03:40:50.715Z,20.70
2018-06-21T03:43:18.654Z,18.03
2018-06-21T03:45:46.751Z,16.83
2018-06-21T03:48:14.615Z,16.87
2018-06-21T03:50:42.652Z,20.70
2018-06-21T03:53:10.607Z,18.73
2018-06-21T03:55:38.574Z,18.23
2018-06-21T03:58:06.531Z,18.80
2018-06-21T04:00:34.578Z,24.03
2018-06-21T04:03:02.565Z,20.73
2018-06-21T04:05:30.413Z,18.70
2018-06-21T04:07:58.506Z,18.30
2018-06-21T04:10:26.484Z,20.63
2018-06-21T04:12:54.459Z,20.17
2018-06-21T04:15:22.476Z,21.07
2018-06-21T04:17:50.419Z,16.30
2018-06-21T04:20:18.547Z,17.23
2018-06-21T04:22:46.503Z,28.80
2018-06-21T04:25:15.215Z,19.12
2018-06-21T04:27:42.990Z,17.10
2018-06-21T04:30:10.846Z,18.60
2018-06-21T04:35:12.998Z,21.77
2018-06-21T04:37:40.939Z,19.50
2018-06-21T04:40:08.917Z,16.33
2018-06-21T04:42:36.927Z,15.00
2018-06-21T04:45:05.255Z,21.40
2018-06-21T04:47:35.666Z,16.30
2018-06-21T04:50:03.719Z,17.27
2018-06-21T04:52:31.669Z,17.07
2018-06-21T04:54:59.695Z,15.70
2018-06-21T04:57:27.483Z,17.97
2018-06-21T04:59:55.455Z,14.77
2018-06-21T05:02:23.256Z,15.20
2018-06-21T05:04:51.222Z,16.37
2018-06-21T05:07:19.672Z,30.70
2018-06-21T05:09:47.819Z,13.57
2018-06-21T05:12:20.883Z,21.93
2018-06-21T05:14:49.579Z,16.00
2018-06-21T05:17:17.571Z,14.57
2018-06-21T05:19:45.567Z,15.43
2018-06-21T05:22:13.371Z,20.10
2018-06-21T05:24:41.443Z,21.33
2018-06-21T05:27:09.587Z,13.20
2018-06-21T05:29:37.587Z,14.00
2018-06-21T05:32:05.621Z,13.40
2018-06-21T05:34:33.426Z,19.23
2018-06-21T05:37:01.435Z,15.30
2018-06-21T05:39:29.440Z,27.37
2018-06-21T05:41:57.440Z,15.00
2018-06-21T05:44:25.734Z,16.40
2018-06-21T05:46:54.542Z,17.40
2018-06-21T05:49:22.520Z,24.57
2018-06-21T05:51:50.491Z,13.40
2018-06-21T05:54:18.602Z,19.33
2018-06-21T05:56:46.653Z,14.83
2018-06-21T05:59:14.612Z,15.80
2018-06-21T06:01:42.519Z,13.63
2018-06-21T06:04:10.547Z,14.53
2018-06-21T06:06:38.543Z,15.07
2018-06-21T06:09:07.832Z,16.20
2018-06-21T06:11:35.936Z,21.17
2018-06-21T06:14:04.032Z,14.60
2018-06-21T06:16:32.290Z,14.20
2018-06-21T06:19:00.350Z,12.60
2018-06-21T06:21:28.411Z,17.63
2018-06-21T06:23:56.183Z,14.37
2018-06-21T06:26:24.023Z,13.33
2018-06-21T06:28:52.084Z,19.70
2018-06-21T06:31:20.099Z,17.27
2018-06-21T06:33:48.420Z,17.60
2018-06-21T06:36:16.384Z,15.93
2018-06-21T06:38:44.380Z,11.53
2018-06-21T06:41:12.366Z,18.57
2018-06-21T06:43:40.326Z,16.37
2018-06-21T06:46:08.406Z,21.70
2018-06-21T06:48:36.619Z,19.30
2018-06-21T06:51:05.646Z,11.93
2018-06-21T06:53:33.926Z,14.40
2018-06-21T06:56:01.932Z,13.47
2018-06-21T06:58:30.049Z,16.00
2018-06-21T07:00:58.542Z,12.67
2018-06-21T07:03:26.596Z,15.20
2018-06-21T07:05:54.508Z,20.47
2018-06-21T07:08:24.124Z,18.20
2018-06-21T07:10:52.724Z,17.70
2018-06-21T07:13:20.801Z,13.67
2018-06-21T07:15:49.871Z,16.30
2018-06-21T07:18:18.687Z,15.63
2018-06-21T07:20:46.856Z,19.00
2018-06-21T07:23:14.725Z,13.20
2018-06-21T07:25:42.671Z,15.40
2018-06-21T07:28:10.636Z,11.00
2018-06-21T07:30:38.691Z,18.13
2018-06-21T07:33:06.483Z,11.83
2018-06-21T07:35:34.478Z,12.17
2018-06-21T07:38:02.443Z,13.60
2018-06-21T07:40:32.138Z,14.27
2018-06-21T07:43:00.287Z,13.80
2018-06-21T07:45:28.324Z,14.83
2018-06-21T07:47:56.305Z,11.20
2018-06-21T07:50:24.785Z,9.43
2018-06-21T07:52:53.483Z,13.20
2018-06-21T07:55:21.492Z,12.53
2018-06-21T07:57:49.282Z,14.07
2018-06-21T08:00:17.259Z,17.60
2018-06-21T08:02:45.390Z,18.57
2018-06-21T08:05:13.530Z,11.33
2018-06-21T08:07:41.741Z,14.17
2018-06-21T08:10:09.788Z,10.17
2018-06-21T08:12:37.704Z,14.57
2018-06-21T08:15:05.746Z,15.20
2018-06-21T08:17:34.814Z,12.80
2018-06-21T08:20:02.951Z,9.10
2018-06-21T08:22:30.848Z,9.70
2018-06-21T08:24:58.831Z,12.73
2018-06-21T08:27:26.795Z,11.43
2018-06-21T08:29:54.788Z,15.63
2018-06-21T08:32:22.717Z,10.50
2018-06-21T08:34:50.696Z,10.37
2018-06-21T08:37:18.988Z,8.70
2018-06-21T08:39:46.955Z,18.63
2018-06-21T08:42:14.910Z,9.67
2018-06-21T08:44:42.999Z,9.47
2018-06-21T08:47:11.259Z,9.60
2018-06-21T08:49:39.382Z,8.00
2018-06-21T08:52:07.503Z,13.00
2018-06-21T08:54:35.883Z,20.23
2018-06-21T08:57:03.988Z,10.60
2018-06-21T08:59:31.951Z,10.13
2018-06-21T09:01:59.954Z,13.30
2018-06-21T09:04:28.139Z,11.20
2018-06-21T09:06:56.331Z,11.17
2018-06-21T09:09:24.432Z,13.90
2018-06-21T09:11:53.651Z,13.13
2018-06-21T09:14:22.714Z,10.13
2018-06-21T09:16:51.108Z,12.10
2018-06-21T09:19:20.950Z,15.47
2018-06-21T09:21:49.613Z,12.67
2018-06-21T09:24:20.046Z,13.70
2018-06-21T09:26:48.444Z,16.47
2018-06-21T09:29:16.653Z,10.60
2018-06-21T09:31:44.715Z,19.67
2018-06-21T09:34:12.739Z,13.67
2018-06-21T09:36:42.571Z,15.17
2018-06-21T09:39:16.746Z,14.30
2018-06-21T09:41:50.339Z,14.90
2018-06-21T09:44:23.833Z,17.23
2018-06-21T09:47:58.273Z,13.93
2018-06-21T09:50:30.066Z,17.57
2018-06-21T09:52:58.866Z,25.53
2018-06-21T09:55:27.160Z,27.60
2018-06-21T09:57:55.275Z,31.60
2018-06-21T10:00:29.245Z,9.95
2018-06-21T10:02:57.608Z,24.03
2018-06-21T10:05:28.599Z,15.13
2018-06-21T10:08:01.592Z,21.43
2018-06-21T10:10:29.634Z,12.60
2018-06-21T10:12:58.571Z,29.63
2018-06-21T10:15:26.440Z,27.53
2018-06-21T10:17:58.114Z,20.83
2018-06-21T10:20:26.219Z,18.00
2018-06-21T10:22:54.442Z,22.93
2018-06-21T10:25:22.657Z,15.77
2018-06-21T10:27:50.620Z,24.77
2018-06-21T10:30:18.595Z,14.87
2018-06-21T10:32:46.591Z,12.83
2018-06-21T10:35:14.696Z,11.43
2018-06-21T10:37:42.967Z,35.63
2018-06-21T10:40:10.959Z,128.80
2018-06-21T10:42:39.125Z,135.67
2018-06-21T10:45:07.553Z,53.47
2018-06-21T10:47:35.720Z,20.47
2018-06-21T10:50:03.684Z,21.97
2018-06-21T10:52:31.659Z,23.03
2018-06-21T10:54:59.754Z,7.23
2018-06-21T10:57:27.722Z,16.83
2018-06-21T10:59:55.834Z,15.50
2018-06-21T11:02:23.800Z,18.13
2018-06-21T11:07:25.311Z,11.63
2018-06-21T11:09:53.333Z,23.17
2018-06-21T11:12:21.401Z,8.50
2018-06-21T11:14:49.539Z,9.37
2018-06-21T11:17:17.452Z,7.63
2018-06-21T11:19:45.491Z,7.57
2018-06-21T11:22:13.519Z,8.60
2018-06-21T11:24:41.560Z,10.90
2018-06-21T11:27:09.554Z,8.00
2018-06-21T11:29:37.658Z,8.50
2018-06-21T11:32:05.603Z,7.00
2018-06-21T11:34:33.395Z,2.70
2018-06-21T11:37:01.584Z,3.80
2018-06-21T11:39:29.597Z,2.20
2018-06-21T11:41:57.643Z,5.70
2018-06-21T11:44:26.028Z,5.30
2018-06-21T11:46:54.101Z,4.30
2018-06-21T11:49:22.152Z,2.00
2018-06-21T11:51:50.115Z,3.87
2018-06-21T11:54:18.093Z,6.00
2018-06-21T11:56:46.076Z,8.40
2018-06-21T11:59:14.074Z,2.60
2018-06-21T12:01:42.116Z,8.60
2018-06-21T12:04:11.199Z,2.57
2018-06-21T12:06:39.163Z,3.83
2018-06-21T12:09:08.747Z,14.13
2018-06-21T12:11:36.847Z,16.63
2018-06-21T12:14:05.158Z,4.60
2018-06-21T12:16:33.190Z,9.57
2018-06-21T12:19:01.140Z,2.57
2018-06-21T12:21:29.097Z,3.37
2018-06-21T12:23:57.193Z,2.47
2018-06-21T12:26:25.178Z,5.50
2018-06-21T12:28:53.177Z,4.37
2018-06-21T12:31:21.147Z,3.97
2018-06-21T12:33:49.341Z,6.50
2018-06-21T12:36:17.141Z,4.90
2018-06-21T12:38:45.013Z,11.83
2018-06-21T12:41:13.007Z,5.47
2018-06-21T12:43:41.610Z,6.90
2018-06-21T12:46:09.733Z,7.50
2018-06-21T12:48:37.759Z,4.57
2018-06-21T12:51:05.579Z,16.10
2018-06-21T12:53:33.766Z,4.23
2018-06-21T12:56:01.871Z,4.43
2018-06-21T12:58:30.056Z,10.30
2018-06-21T13:00:58.027Z,6.90
2018-06-21T13:03:26.228Z,4.33
2018-06-21T13:05:54.290Z,11.40
2018-06-21T13:09:35.734Z,4.83
2018-06-21T13:12:26.564Z,7.40
2018-06-21T13:14:55.450Z,9.07
2018-06-21T13:17:23.528Z,10.47
2018-06-21T13:19:51.555Z,6.27
2018-06-21T13:22:19.436Z,5.80
2018-06-21T13:24:47.427Z,6.93
2018-06-21T13:27:15.399Z,3.73
2018-06-21T13:29:43.433Z,5.03
2018-06-21T13:32:11.451Z,7.77
2018-06-21T13:34:39.419Z,5.33
2018-06-21T13:37:08.121Z,7.23
2018-06-21T13:39:36.219Z,9.03
2018-06-21T13:42:04.409Z,8.87
2018-06-21T13:44:32.632Z,7.47
2018-06-21T13:47:01.491Z,9.10
2018-06-21T13:49:29.479Z,5.37
2018-06-21T13:51:57.635Z,3.93
2018-06-21T13:54:25.959Z,5.97
2018-06-21T13:56:53.935Z,3.23
2018-06-21T13:59:21.911Z,6.00
2018-06-21T14:01:50.260Z,13.70
2018-06-21T14:04:18.237Z,17.77
2018-06-21T14:06:46.219Z,14.83
2018-06-21T14:09:14.238Z,5.67
2018-06-21T14:11:42.727Z,7.53
2018-06-21T14:14:10.770Z,23.63
2018-06-21T14:16:38.766Z,5.40
2018-06-21T14:19:07.090Z,8.53
2018-06-21T14:21:35.276Z,4.30
2018-06-21T14:24:07.259Z,14.70
2018-06-21T14:26:36.156Z,9.80
2018-06-21T14:29:04.304Z,21.20
2018-06-21T14:31:32.262Z,8.80
2018-06-21T14:34:00.102Z,6.07
2018-06-21T14:36:28.070Z,4.77
2018-06-21T14:38:56.166Z,13.13
2018-06-21T14:41:24.392Z,4.50
2018-06-21T14:43:52.440Z,7.77
2018-06-21T14:46:20.795Z,6.90
2018-06-21T14:48:48.817Z,6.33
2018-06-21T14:51:17.046Z,7.50
2018-06-21T14:53:44.899Z,5.70
2018-06-21T14:56:13.177Z,9.50
2018-06-21T14:58:41.668Z,4.80
2018-06-21T15:01:09.615Z,7.63
2018-06-21T15:03:37.631Z,6.47
2018-06-21T15:06:05.596Z,5.60
2018-06-21T15:08:33.548Z,3.60
2018-06-21T15:11:01.544Z,3.90
2018-06-21T15:13:29.575Z,11.20
2018-06-21T15:15:57.627Z,4.20
2018-06-21T15:18:25.731Z,5.77
2018-06-21T15:20:53.671Z,9.67
2018-06-21T15:23:21.647Z,15.93
2018-06-21T15:25:50.335Z,4.20
2018-06-21T15:28:18.159Z,7.80
2018-06-21T15:30:46.397Z,13.87
2018-06-21T15:33:14.355Z,13.00
2018-06-21T15:35:42.379Z,8.90
2018-06-21T15:38:10.420Z,6.27
2018-06-21T15:40:38.462Z,6.60
2018-06-21T15:43:06.528Z,6.30
2018-06-21T15:45:34.838Z,8.80
2018-06-21T15:48:02.811Z,6.80
2018-06-21T15:50:30.877Z,5.07
2018-06-21T15:52:58.771Z,6.60
2018-06-21T15:55:26.778Z,16.07
2018-06-21T15:57:54.772Z,8.73
2018-06-21T16:00:22.735Z,11.53
2018-06-21T16:02:50.739Z,13.07
2018-06-21T16:05:18.731Z,8.13
2018-06-21T16:07:46.780Z,10.00
2018-06-21T16:10:14.859Z,3.43
2018-06-21T16:12:43.140Z,9.00
2018-06-21T16:15:11.427Z,11.13
2018-06-21T16:17:39.394Z,5.87
2018-06-21T16:20:08.553Z,29.17
2018-06-21T16:22:36.807Z,11.10
2018-06-21T16:25:05.078Z,13.53
2018-06-21T16:27:33.401Z,35.38
2018-06-21T16:30:02.120Z,28.10
2018-06-21T16:32:30.202Z,12.00
2018-06-21T16:34:58.444Z,16.20
2018-06-21T16:37:26.391Z,11.37
2018-06-21T16:39:54.382Z,37.10
2018-06-21T16:42:22.718Z,8.30
2018-06-21T16:44:51.857Z,23.03
2018-06-21T16:47:20.191Z,8.70
2018-06-21T16:49:48.667Z,15.30
2018-06-21T16:52:17.080Z,11.33
2018-06-21T16:54:45.520Z,12.70
2018-06-21T16:57:14.043Z,10.77
2018-06-21T16:59:42.676Z,11.90
2018-06-21T17:02:13.357Z,8.43
2018-06-21T17:04:42.381Z,11.93
2018-06-21T17:07:10.491Z,8.70
2018-06-21T17:09:38.518Z,17.27
2018-06-21T17:12:06.594Z,16.47
2018-06-21T17:14:35.008Z,4.77
2018-06-21T17:17:03.167Z,6.90
2018-06-21T17:19:31.305Z,15.67
2018-06-21T17:22:00.079Z,11.63
2018-06-21T17:24:28.207Z,8.63
2018-06-21T17:26:56.155Z,10.30
2018-06-21T17:29:24.436Z,12.93
2018-06-21T17:31:52.435Z,8.97
2018-06-21T17:34:20.424Z,13.83
2018-06-21T17:36:48.398Z,13.30
2018-06-21T17:39:16.377Z,5.80
2018-06-21T17:41:44.407Z,16.03
2018-06-21T17:44:12.328Z,5.03
2018-06-21T17:46:40.784Z,11.67
2018-06-21T17:49:08.578Z,19.00
2018-06-21T17:51:37.631Z,10.50
2018-06-21T17:54:05.711Z,11.17
2018-06-21T17:56:36.821Z,10.60
2018-06-21T17:59:05.187Z,6.40
2018-06-21T18:01:33.142Z,5.70
2018-06-21T18:04:01.142Z,4.87
2018-06-21T18:06:29.102Z,6.23
2018-06-21T18:08:57.159Z,9.50
2018-06-21T18:11:25.301Z,2.70
2018-06-21T18:13:53.796Z,6.83
2018-06-21T18:16:21.731Z,3.83
2018-06-21T18:18:49.684Z,4.80
2018-06-21T18:21:18.468Z,6.77
2018-06-21T18:23:46.436Z,7.72
2018-06-21T18:26:14.391Z,7.37
2018-06-21T18:28:42.588Z,20.95
2018-06-21T18:31:12.145Z,12.30
2018-06-21T18:33:40.150Z,14.33
2018-06-21T18:36:08.684Z,12.67
2018-06-21T18:38:36.675Z,9.20
2018-06-21T18:41:04.714Z,5.17
2018-06-21T18:43:32.724Z,7.97
2018-06-21T18:46:03.356Z,18.53
2018-06-21T18:48:32.997Z,19.83
2018-06-21T18:51:02.258Z,5.60
2018-06-21T18:53:30.481Z,2.10
2018-06-21T18:57:01.993Z,5.50
2018-06-21T18:59:30.143Z,3.93
2018-06-21T19:01:58.276Z,9.53
2018-06-21T19:04:26.299Z,7.77
2018-06-21T19:06:59.887Z,7.45
2018-06-21T19:09:33.843Z,6.43
2018-06-21T19:12:03.794Z,11.13
2018-06-21T19:14:31.875Z,1.90
2018-06-21T19:17:01.185Z,10.30
2018-06-21T19:19:29.258Z,1.97
2018-06-21T19:21:57.172Z,4.03
2018-06-21T19:24:25.335Z,4.30
2018-06-21T19:26:53.730Z,2.57
2018-06-21T19:29:22.450Z,2.80
2018-06-21T19:31:54.462Z,1.67
2018-06-21T19:34:22.603Z,3.00
2018-06-21T19:36:50.684Z,3.43
2018-06-21T19:39:18.727Z,3.53
2018-06-21T19:41:46.710Z,7.33
2018-06-21T19:44:14.671Z,33.63
2018-06-21T19:46:42.459Z,3.10
2018-06-21T19:49:10.412Z,6.87
2018-06-21T19:51:38.414Z,12.70
2018-06-21T19:54:06.804Z,6.47
2018-06-21T19:56:35.675Z,8.53
2018-06-21T19:59:04.862Z,3.53
2018-06-21T20:01:33.111Z,6.57
2018-06-21T20:04:01.182Z,7.20
2018-06-21T20:06:29.147Z,5.17
2018-06-21T20:08:57.168Z,9.60
2018-06-21T20:11:30.647Z,8.63
2018-06-21T20:13:58.669Z,4.43
2018-06-21T20:16:26.520Z,7.10
2018-06-21T20:18:54.465Z,3.83
2018-06-21T20:21:22.646Z,7.20
2018-06-21T20:23:51.519Z,5.50
2018-06-21T20:26:20.195Z,4.97
2018-06-21T20:28:48.191Z,9.53
2018-06-21T20:31:17.458Z,5.40
2018-06-21T20:33:46.558Z,3.00
2018-06-21T20:36:15.243Z,7.10
2018-06-21T20:38:43.220Z,3.30
2018-06-21T20:41:12.234Z,3.53
2018-06-21T20:43:40.298Z,2.93
2018-06-21T20:46:09.991Z,3.30
2018-06-21T20:48:37.935Z,3.30
2018-06-21T20:51:06.240Z,2.43
2018-06-21T20:53:34.255Z,6.73
2018-06-21T20:56:02.255Z,3.50
2018-06-21T20:58:30.031Z,3.13
2018-06-21T21:00:58.032Z,3.00
2018-06-21T21:03:25.969Z,5.93
2018-06-21T21:05:53.927Z,14.77
2018-06-21T21:08:21.883Z,3.03
2018-06-21T21:10:49.868Z,4.77
2018-06-21T21:13:17.860Z,10.50
2018-06-21T21:15:45.931Z,9.10
2018-06-21T21:18:13.987Z,7.53
2018-06-21T21:20:41.828Z,5.70
2018-06-21T21:23:09.911Z,3.97
2018-06-21T21:25:37.828Z,2.30
2018-06-21T21:28:06.190Z,5.80
2018-06-21T21:30:34.347Z,5.20
2018-06-21T21:33:02.455Z,4.13
2018-06-21T21:35:30.531Z,5.40
2018-06-21T21:37:58.611Z,5.23
2018-06-21T21:40:26.576Z,2.40
2018-06-21T21:42:54.535Z,9.30
2018-06-21T21:45:22.503Z,6.87
2018-06-21T21:47:50.507Z,5.73
2018-06-21T21:50:18.342Z,3.17
2018-06-21T21:52:46.507Z,5.53
2018-06-21T21:55:14.450Z,4.10
2018-06-21T21:57:42.243Z,9.67
2018-06-21T22:00:21.871Z,3.60
2018-06-21T22:02:50.012Z,2.70
2018-06-21T22:05:18.041Z,3.57
2018-06-21T22:07:46.147Z,3.33
2018-06-21T22:10:14.124Z,6.60
2018-06-21T22:12:42.223Z,4.50
2018-06-21T22:15:10.331Z,8.33
2018-06-21T22:17:38.324Z,7.33
2018-06-21T22:20:07.679Z,5.00
2018-06-21T22:22:36.031Z,5.33
2018-06-21T22:25:04.059Z,7.10
2018-06-21T22:27:31.856Z,4.33
2018-06-21T22:29:59.803Z,4.60
2018-06-21T22:32:27.755Z,5.27
2018-06-21T22:34:55.703Z,6.50
2018-06-21T22:37:23.659Z,1.73
2018-06-21T22:39:51.639Z,3.40
2018-06-21T22:42:19.663Z,6.37
2018-06-21T22:44:48.005Z,6.40
2018-06-21T22:47:15.940Z,3.13
2018-06-21T22:49:43.930Z,6.70
2018-06-21T22:52:12.041Z,4.83
2018-06-21T22:54:39.992Z,7.03
2018-06-21T22:57:08.081Z,3.60
2018-06-21T22:59:36.179Z,5.67
2018-06-21T23:02:04.173Z,4.10
2018-06-21T23:04:32.310Z,4.97
2018-06-21T23:07:00.292Z,11.17
2018-06-21T23:09:28.249Z,7.33
2018-06-21T23:11:56.202Z,7.90
2018-06-21T23:14:24.159Z,2.80
2018-06-21T23:16:54.031Z,5.60
2018-06-21T23:19:30.666Z,7.40
2018-06-21T23:21:59.381Z,12.57
2018-06-21T23:24:27.697Z,5.10
2018-06-21T23:26:55.864Z,6.03
2018-06-21T23:29:23.826Z,8.60
2018-06-21T23:31:52.232Z,3.80
2018-06-21T23:34:20.840Z,6.90
2018-06-21T23:36:49.310Z,8.70
2018-06-21T23:39:17.368Z,8.63
2018-06-21T23:41:45.399Z,8.70
2018-06-21T23:44:14.356Z,7.80
2018-06-21T23:46:43.733Z,15.37
2018-06-21T23:49:12.220Z,6.50
2018-06-21T23:51:40.526Z,8.27
2018-06-21T23:54:12.782Z,3.53
2018-06-21T23:56:41.774Z,4.47
2018-06-21T23:59:09.756Z,5.77
